createdAt,value
2023-04-16T00:02:17.715Z,10.73
2023-04-16T00:04:46.241Z,11.48
2023-04-16T00:07:14.646Z,19.50
2023-04-16T00:09:42.794Z,25.33
2023-04-16T00:12:11.176Z,57.15
2023-04-16T00:14:39.380Z,43.65
2023-04-16T00:17:07.901Z,49.58
2023-04-16T00:19:36.170Z,54.88
2023-04-16T00:22:04.882Z,57.40
2023-04-16T00:24:33.287Z,68.75
2023-04-16T00:27:01.582Z,55.67
2023-04-16T00:29:31.531Z,51.40
2023-04-16T00:31:59.772Z,27.35
2023-04-16T00:34:28.027Z,16.30
2023-04-16T00:36:56.318Z,13.25
2023-04-16T00:39:24.475Z,18.60
2023-04-16T00:41:52.639Z,15.50
2023-04-16T00:44:20.816Z,6.70
2023-04-16T00:46:49.374Z,7.88
2023-04-16T00:49:19.074Z,7.75
2023-04-16T00:51:47.640Z,7.28
2023-04-16T00:54:15.836Z,6.32
2023-04-16T00:56:45.153Z,6.00
2023-04-16T01:01:44.429Z,5.85
2023-04-16T01:04:12.984Z,4.80
2023-04-16T01:06:41.191Z,5.13
2023-04-16T01:09:11.425Z,5.72
2023-04-16T01:11:39.909Z,3.80
2023-04-16T01:14:08.188Z,4.78
2023-04-16T01:16:36.423Z,4.32
2023-04-16T01:19:04.627Z,3.63
2023-04-16T01:21:32.955Z,4.35
2023-04-16T01:24:04.987Z,8.40
2023-04-16T01:26:34.275Z,4.95
2023-04-16T01:29:02.949Z,3.67
2023-04-16T01:31:31.276Z,5.28
2023-04-16T01:34:06.379Z,12.82
2023-04-16T01:36:36.084Z,5.50
2023-04-16T01:39:04.351Z,7.38
2023-04-16T01:41:32.663Z,6.45
2023-04-16T01:44:00.922Z,7.78
2023-04-16T01:46:31.448Z,8.68
2023-04-16T01:48:59.992Z,5.97
2023-04-16T01:51:28.325Z,5.40
2023-04-16T01:53:56.965Z,5.30
2023-04-16T01:56:25.761Z,5.47
2023-04-16T01:58:54.276Z,4.80
2023-04-16T02:01:23.129Z,4.68
2023-04-16T02:03:52.560Z,6.78
2023-04-16T02:06:21.245Z,9.55
2023-04-16T02:08:49.467Z,8.25
2023-04-16T02:11:17.704Z,6.55
2023-04-16T02:13:46.882Z,6.15
2023-04-16T02:16:15.313Z,4.82
2023-04-16T02:18:48.675Z,5.20
2023-04-16T02:21:19.000Z,4.97
2023-04-16T02:23:47.833Z,4.68
2023-04-16T02:26:16.716Z,4.82
2023-04-16T02:28:45.236Z,4.35
2023-04-16T02:31:14.495Z,6.43
2023-04-16T02:33:45.691Z,5.93
2023-04-16T02:36:13.967Z,5.97
2023-04-16T02:38:42.256Z,6.13
2023-04-16T02:41:10.530Z,7.43
2023-04-16T02:43:38.708Z,10.30
2023-04-16T02:46:06.970Z,12.30
2023-04-16T02:48:35.314Z,10.00
2023-04-16T02:51:03.516Z,7.40
2023-04-16T02:53:31.607Z,6.45
2023-04-16T02:55:59.968Z,6.97
2023-04-16T02:58:28.428Z,7.28
2023-04-16T03:00:56.936Z,6.50
2023-04-16T03:03:25.278Z,6.32
2023-04-16T03:05:53.562Z,5.95
2023-04-16T03:08:21.806Z,5.97
2023-04-16T03:10:49.960Z,6.43
2023-04-16T03:13:18.670Z,6.18
2023-04-16T03:15:52.800Z,6.85
2023-04-16T03:18:21.282Z,6.35
2023-04-16T03:20:54.851Z,6.95
2023-04-16T03:25:51.412Z,5.55
2023-04-16T03:28:19.821Z,6.68
2023-04-16T03:30:52.574Z,8.88
2023-04-16T03:33:21.858Z,7.05
2023-04-16T03:35:59.428Z,8.38
2023-04-16T03:38:31.107Z,9.52
2023-04-16T03:41:00.491Z,6.50
2023-04-16T03:43:32.331Z,5.97
2023-04-16T03:46:00.646Z,6.32
2023-04-16T03:48:28.829Z,6.07
2023-04-16T03:50:57.233Z,6.43
2023-04-16T03:53:25.749Z,8.52
2023-04-16T03:55:53.968Z,10.60
2023-04-16T03:58:23.196Z,10.38
2023-04-16T04:00:54.370Z,11.60
2023-04-16T04:03:23.085Z,11.15
2023-04-16T04:05:51.438Z,13.40
2023-04-16T04:08:27.509Z,13.40
2023-04-16T04:10:55.679Z,13.32
2023-04-16T04:13:25.460Z,10.75
2023-04-16T04:15:54.728Z,11.25
2023-04-16T04:18:23.900Z,9.00
2023-04-16T04:20:52.566Z,9.27
2023-04-16T04:23:24.750Z,8.20
2023-04-16T04:25:53.055Z,7.43
2023-04-16T04:28:21.720Z,7.63
2023-04-16T04:30:49.898Z,11.77
2023-04-16T04:33:19.406Z,13.68
2023-04-16T04:35:48.910Z,21.75
2023-04-16T04:38:17.315Z,21.20
2023-04-16T04:40:45.332Z,16.50
2023-04-16T04:43:13.660Z,13.57
2023-04-16T04:45:41.979Z,64.43
2023-04-16T04:48:10.374Z,26.10
2023-04-16T04:50:38.464Z,20.10
2023-04-16T04:53:06.701Z,15.30
2023-04-16T04:55:34.975Z,17.02
2023-04-16T04:58:04.518Z,21.38
2023-04-16T05:00:34.028Z,19.17
2023-04-16T05:03:04.419Z,16.33
2023-04-16T05:05:32.953Z,14.32
2023-04-16T05:08:00.971Z,11.15
2023-04-16T05:10:29.175Z,10.40
2023-04-16T05:12:57.293Z,10.82
2023-04-16T05:15:25.510Z,10.68
2023-04-16T05:17:53.697Z,46.25
2023-04-16T05:20:22.363Z,33.20
2023-04-16T05:22:51.798Z,29.17
2023-04-16T05:25:19.969Z,28.92
2023-04-16T05:27:48.180Z,18.50
2023-04-16T05:30:16.349Z,14.63
2023-04-16T05:32:44.499Z,10.75
2023-04-16T05:35:13.908Z,9.35
2023-04-16T05:37:43.004Z,9.13
2023-04-16T05:40:12.715Z,8.60
2023-04-16T05:42:40.921Z,8.77
2023-04-16T05:45:09.679Z,8.80
2023-04-16T05:47:37.946Z,9.63
2023-04-16T05:50:06.512Z,9.98
2023-04-16T05:52:34.945Z,10.13
2023-04-16T05:55:03.056Z,9.25
2023-04-16T05:57:31.363Z,8.48
2023-04-16T05:59:59.438Z,8.10
2023-04-16T06:02:27.898Z,8.15
2023-04-16T06:04:56.188Z,9.05
2023-04-16T06:07:24.629Z,9.60
2023-04-16T06:09:52.755Z,9.75
2023-04-16T06:12:20.909Z,12.93
2023-04-16T06:14:49.169Z,10.73
2023-04-16T06:17:17.322Z,10.52
2023-04-16T06:19:45.529Z,9.50
2023-04-16T06:22:14.164Z,7.95
2023-04-16T06:24:42.341Z,8.75
2023-04-16T06:27:10.726Z,9.35
2023-04-16T06:29:41.565Z,10.02
2023-04-16T06:32:10.181Z,11.63
2023-04-16T06:34:39.070Z,11.15
2023-04-16T06:37:09.845Z,10.80
2023-04-16T06:39:38.833Z,9.18
2023-04-16T06:42:06.938Z,9.35
2023-04-16T06:44:36.072Z,9.25
2023-04-16T06:47:04.323Z,9.15
2023-04-16T06:49:32.674Z,9.10
2023-04-16T06:52:00.925Z,9.48
2023-04-16T06:54:29.154Z,9.20
2023-04-16T06:56:57.287Z,8.50
2023-04-16T06:59:25.616Z,9.85
2023-04-16T07:01:53.814Z,9.98
2023-04-16T07:04:22.127Z,12.25
2023-04-16T07:06:50.420Z,11.40
2023-04-16T07:09:18.553Z,10.63
2023-04-16T07:11:47.193Z,10.32
2023-04-16T07:14:15.386Z,11.25
2023-04-16T07:16:43.603Z,9.95
2023-04-16T07:19:12.136Z,10.02
2023-04-16T07:21:40.661Z,10.45
2023-04-16T07:24:08.858Z,11.13
2023-04-16T07:26:37.039Z,9.80
2023-04-16T07:29:05.455Z,11.48
2023-04-16T07:31:33.873Z,11.65
2023-04-16T07:34:02.034Z,11.38
2023-04-16T07:36:30.425Z,10.23
2023-04-16T07:38:59.244Z,11.55
2023-04-16T07:41:27.771Z,10.60
2023-04-16T07:43:56.088Z,10.82
2023-04-16T07:46:24.994Z,11.70
2023-04-16T07:48:54.679Z,10.95
2023-04-16T07:51:23.383Z,11.20
2023-04-16T07:53:51.547Z,11.90
2023-04-16T07:56:19.741Z,13.65
2023-04-16T07:58:48.280Z,12.07
2023-04-16T08:01:16.320Z,13.18
2023-04-16T08:03:44.949Z,13.25
2023-04-16T08:06:13.347Z,12.40
2023-04-16T08:08:41.510Z,12.68
2023-04-16T08:11:09.864Z,14.20
2023-04-16T08:13:38.032Z,14.50
2023-04-16T08:16:06.694Z,13.55
2023-04-16T08:18:34.941Z,12.88
2023-04-16T08:21:03.423Z,12.25
2023-04-16T08:23:31.693Z,12.73
2023-04-16T08:25:59.872Z,12.45
2023-04-16T08:28:28.180Z,12.13
2023-04-16T08:30:56.375Z,11.68
2023-04-16T08:33:24.759Z,12.90
2023-04-16T08:35:52.887Z,12.30
2023-04-16T08:38:21.306Z,11.23
2023-04-16T08:40:49.610Z,11.18
2023-04-16T08:43:21.775Z,12.10
2023-04-16T08:45:51.288Z,11.45
2023-04-16T08:48:20.940Z,11.93
2023-04-16T08:50:52.984Z,11.93
2023-04-16T08:53:43.738Z,13.07
2023-04-16T08:56:13.659Z,13.43
2023-04-16T08:58:42.596Z,12.05
2023-04-16T09:01:11.556Z,11.93
2023-04-16T09:03:40.026Z,13.70
2023-04-16T09:06:10.446Z,13.48
2023-04-16T09:08:39.488Z,13.57
2023-04-16T09:11:08.804Z,12.55
2023-04-16T09:13:38.698Z,13.45
2023-04-16T09:16:08.793Z,13.82
2023-04-16T09:18:37.088Z,12.23
2023-04-16T09:21:06.039Z,12.27
2023-04-16T09:23:34.369Z,12.40
2023-04-16T09:26:02.852Z,12.98
2023-04-16T09:28:47.442Z,12.88
2023-04-16T09:31:18.623Z,12.02
2023-04-16T09:34:19.331Z,12.80
2023-04-16T09:36:48.087Z,12.57
2023-04-16T09:39:20.275Z,12.93
2023-04-16T09:41:48.893Z,13.77
2023-04-16T09:44:17.341Z,15.30
2023-04-16T09:46:45.688Z,17.45
2023-04-16T09:49:18.286Z,12.55
2023-04-16T09:51:48.879Z,12.90
2023-04-16T09:54:17.249Z,12.32
2023-04-16T09:56:46.800Z,11.57
2023-04-16T09:59:22.215Z,12.02
2023-04-16T10:01:51.363Z,11.52
2023-04-16T10:04:20.422Z,13.45
2023-04-16T10:07:08.778Z,12.38
2023-04-16T10:09:40.555Z,12.77
2023-04-16T10:12:09.618Z,12.43
2023-04-16T10:14:37.972Z,11.18
2023-04-16T10:17:06.616Z,11.65
2023-04-16T10:19:35.506Z,11.63
2023-04-16T10:22:04.884Z,11.32
2023-04-16T10:24:35.081Z,14.15
2023-04-16T10:27:03.496Z,12.43
2023-04-16T10:29:32.788Z,10.77
2023-04-16T10:32:01.514Z,10.77
2023-04-16T10:34:30.415Z,12.73
2023-04-16T10:36:58.707Z,12.52
2023-04-16T10:39:29.529Z,11.70
2023-04-16T10:42:12.031Z,11.45
2023-04-16T10:44:45.514Z,10.65
2023-04-16T10:47:14.726Z,10.88
2023-04-16T10:49:43.831Z,10.23
2023-04-16T10:52:17.212Z,10.07
2023-04-16T10:54:47.484Z,10.60
2023-04-16T10:57:20.500Z,11.25
2023-04-16T10:59:49.970Z,10.20
2023-04-16T11:02:19.418Z,10.90
2023-04-16T11:04:49.852Z,10.68
2023-04-16T11:07:31.946Z,9.05
2023-04-16T11:10:13.673Z,10.02
2023-04-16T11:12:43.355Z,9.40
2023-04-16T11:15:18.473Z,7.78
2023-04-16T11:17:48.714Z,7.43
2023-04-16T11:20:22.960Z,7.97
2023-04-16T11:22:56.784Z,7.82
2023-04-16T11:25:27.313Z,8.55
2023-04-16T11:27:55.902Z,7.22
2023-04-16T11:30:35.021Z,8.40
2023-04-16T11:33:04.820Z,8.15
2023-04-16T11:35:33.056Z,7.80
2023-04-16T11:38:01.583Z,9.13
2023-04-16T11:40:32.658Z,10.63
2023-04-16T11:43:14.003Z,10.57
2023-04-16T11:45:58.481Z,10.53
2023-04-16T11:48:27.228Z,10.18
2023-04-16T11:50:58.991Z,9.48
2023-04-16T11:53:27.419Z,11.38
2023-04-16T11:55:55.577Z,10.73
2023-04-16T11:58:23.867Z,12.90
2023-04-16T12:00:52.224Z,10.13
2023-04-16T12:03:38.049Z,9.63
2023-04-16T12:06:10.040Z,8.63
2023-04-16T12:08:38.400Z,8.38
2023-04-16T12:11:06.685Z,7.88
2023-04-16T12:13:35.193Z,8.48
2023-04-16T12:16:03.569Z,8.52
2023-04-16T12:18:31.931Z,10.98
2023-04-16T12:21:04.872Z,7.60
2023-04-16T12:23:36.200Z,8.77
2023-04-16T12:26:13.333Z,8.15
2023-04-16T12:28:41.804Z,8.27
2023-04-16T12:31:10.171Z,8.80
2023-04-16T12:33:38.594Z,8.00
2023-04-16T12:36:20.464Z,8.93
2023-04-16T12:38:48.876Z,9.63
2023-04-16T12:41:17.139Z,8.30
2023-04-16T12:43:45.455Z,8.85
2023-04-16T12:46:13.775Z,9.15
2023-04-16T12:48:43.081Z,10.20
2023-04-16T12:51:11.409Z,9.88
2023-04-16T12:53:39.715Z,10.57
2023-04-16T12:56:07.971Z,10.05
2023-04-16T12:58:36.249Z,10.00
2023-04-16T13:01:04.450Z,10.45
2023-04-16T13:03:33.211Z,10.00
2023-04-16T13:06:01.398Z,9.95
2023-04-16T13:08:30.214Z,9.70
2023-04-16T13:10:58.576Z,10.20
2023-04-16T13:13:26.900Z,9.75
2023-04-16T13:15:55.123Z,9.48
2023-04-16T13:18:23.398Z,10.05
2023-04-16T13:20:51.816Z,9.30
2023-04-16T13:23:20.441Z,10.02
2023-04-16T13:25:50.582Z,11.38
2023-04-16T13:28:18.908Z,9.23
2023-04-16T13:30:50.001Z,9.70
2023-04-16T13:33:18.387Z,10.23
2023-04-16T13:35:46.614Z,9.90
2023-04-16T13:38:14.781Z,9.55
2023-04-16T13:40:42.977Z,11.20
2023-04-16T13:43:11.616Z,9.43
2023-04-16T13:45:39.821Z,11.18
2023-04-16T13:48:08.287Z,10.02
2023-04-16T13:50:36.484Z,9.88
2023-04-16T13:53:04.779Z,10.05
2023-04-16T13:55:32.868Z,10.45
2023-04-16T13:58:01.312Z,9.40
2023-04-16T14:00:29.635Z,10.48
2023-04-16T14:02:58.327Z,9.48
2023-04-16T14:05:27.246Z,12.80
2023-04-16T14:07:55.627Z,11.32
2023-04-16T14:10:23.943Z,16.08
2023-04-16T14:12:52.324Z,13.38
2023-04-16T14:15:21.098Z,11.10
2023-04-16T14:17:49.433Z,13.90
2023-04-16T14:20:17.654Z,12.32
2023-04-16T14:22:46.326Z,11.13
2023-04-16T14:25:14.548Z,10.32
2023-04-16T14:27:42.909Z,10.55
2023-04-16T14:30:11.517Z,11.18
2023-04-16T14:32:39.888Z,11.18
2023-04-16T14:35:08.719Z,11.25
2023-04-16T14:37:37.311Z,11.55
2023-04-16T14:40:06.681Z,10.32
2023-04-16T14:42:35.472Z,12.77
2023-04-16T14:45:04.539Z,11.27
2023-04-16T14:47:35.915Z,13.63
2023-04-16T14:50:05.038Z,10.23
2023-04-16T14:52:33.410Z,13.07
2023-04-16T14:55:01.564Z,9.98
2023-04-16T14:57:29.885Z,9.70
2023-04-16T14:59:58.052Z,13.25
2023-04-16T15:02:26.658Z,11.07
2023-04-16T15:04:55.519Z,10.57
2023-04-16T15:07:23.984Z,10.80
2023-04-16T15:09:52.376Z,12.63
2023-04-16T15:12:20.735Z,10.95
2023-04-16T15:14:48.964Z,11.48
2023-04-16T15:17:17.248Z,12.88
2023-04-16T15:19:45.738Z,12.50
2023-04-16T15:22:14.141Z,10.82
2023-04-16T15:24:44.471Z,11.23
2023-04-16T15:27:14.039Z,10.48
2023-04-16T15:29:42.271Z,12.52
2023-04-16T15:32:10.823Z,11.00
2023-04-16T15:34:39.359Z,11.52
2023-04-16T15:37:07.706Z,9.52
2023-04-16T15:39:35.841Z,10.50
2023-04-16T15:42:07.211Z,11.07
2023-04-16T15:44:35.902Z,11.25
2023-04-16T15:47:04.262Z,11.82
2023-04-16T15:49:32.576Z,10.45
2023-04-16T15:52:00.973Z,10.82
2023-04-16T15:54:30.472Z,10.05
2023-04-16T15:56:59.101Z,10.18
2023-04-16T15:59:27.744Z,10.07
2023-04-16T16:01:55.990Z,9.93
2023-04-16T16:04:24.534Z,9.68
2023-04-16T16:06:53.993Z,9.52
2023-04-16T16:09:22.264Z,9.55
2023-04-16T16:11:50.512Z,10.43
2023-04-16T16:14:18.865Z,10.73
2023-04-16T16:16:47.304Z,9.30
2023-04-16T16:19:15.722Z,9.73
2023-04-16T16:21:44.054Z,9.38
2023-04-16T16:24:12.327Z,9.18
2023-04-16T16:26:40.552Z,9.15
2023-04-16T16:29:09.190Z,9.48
2023-04-16T16:31:37.518Z,8.45
2023-04-16T16:34:05.949Z,9.45
2023-04-16T16:36:34.230Z,8.40
2023-04-16T16:39:02.821Z,10.15
2023-04-16T16:41:31.509Z,8.88
2023-04-16T16:43:59.692Z,8.38
2023-04-16T16:46:28.120Z,9.00
2023-04-16T16:48:56.406Z,8.48
2023-04-16T16:51:24.658Z,8.80
2023-04-16T16:53:53.521Z,8.95
2023-04-16T16:56:21.846Z,9.18
2023-04-16T16:58:49.979Z,8.90
2023-04-16T17:01:18.743Z,8.07
2023-04-16T17:03:47.122Z,7.97
2023-04-16T17:06:15.363Z,8.68
2023-04-16T17:08:43.688Z,8.65
2023-04-16T17:11:11.993Z,9.18
2023-04-16T17:13:40.203Z,8.27
2023-04-16T17:16:08.549Z,10.30
2023-04-16T17:18:36.761Z,9.00
2023-04-16T17:21:05.083Z,10.63
2023-04-16T17:23:33.453Z,9.98
2023-04-16T17:26:01.802Z,8.70
2023-04-16T17:28:30.037Z,9.88
2023-04-16T17:30:58.437Z,8.07
2023-04-16T17:33:26.523Z,8.80
2023-04-16T17:35:54.719Z,8.52
2023-04-16T17:38:22.958Z,10.13
2023-04-16T17:40:51.145Z,8.98
2023-04-16T17:43:19.312Z,9.13
2023-04-16T17:45:47.495Z,9.65
2023-04-16T17:48:15.886Z,10.63
2023-04-16T17:50:44.213Z,9.00
2023-04-16T17:53:12.324Z,9.65
2023-04-16T17:55:40.632Z,9.45
2023-04-16T17:58:08.829Z,8.95
2023-04-16T18:00:37.095Z,9.40
2023-04-16T18:03:05.333Z,9.63
2023-04-16T18:05:33.760Z,10.68
2023-04-16T18:08:01.942Z,9.93
2023-04-16T18:10:30.365Z,11.02
2023-04-16T18:12:58.436Z,10.35
2023-04-16T18:15:26.701Z,9.25
2023-04-16T18:17:55.163Z,11.80
2023-04-16T18:20:23.811Z,10.50
2023-04-16T18:22:52.069Z,10.77
2023-04-16T18:25:32.000Z,10.88
2023-04-16T18:28:02.609Z,11.55
2023-04-16T18:30:31.006Z,10.05
2023-04-16T18:35:30.223Z,11.03
2023-04-16T18:37:58.513Z,10.60
2023-04-16T18:40:26.854Z,10.25
2023-04-16T18:42:55.030Z,10.68
2023-04-16T18:45:23.522Z,11.32
2023-04-16T18:47:51.946Z,15.20
2023-04-16T18:50:20.348Z,13.88
2023-04-16T18:52:48.445Z,10.70
2023-04-16T18:55:16.928Z,14.27
2023-04-16T18:57:45.225Z,12.57
2023-04-16T19:00:14.064Z,14.30
2023-04-16T19:02:42.983Z,13.55
2023-04-16T19:05:11.300Z,15.35
2023-04-16T19:07:39.749Z,17.23
2023-04-16T19:10:08.671Z,15.40
2023-04-16T19:12:36.993Z,14.20
2023-04-16T19:15:06.113Z,14.10
2023-04-16T19:17:34.326Z,15.05
2023-04-16T19:20:02.718Z,13.48
2023-04-16T19:22:30.958Z,11.32
2023-04-16T19:24:59.312Z,11.88
2023-04-16T19:27:29.832Z,12.82
2023-04-16T19:29:58.593Z,13.60
2023-04-16T19:32:26.738Z,13.77
2023-04-16T19:34:55.040Z,12.70
2023-04-16T19:37:24.253Z,13.88
2023-04-16T19:39:52.538Z,15.05
2023-04-16T19:42:20.892Z,11.82
2023-04-16T19:44:49.203Z,13.23
2023-04-16T19:47:17.842Z,12.98
2023-04-16T19:49:46.108Z,12.65
2023-04-16T19:52:14.207Z,14.73
2023-04-16T19:54:42.600Z,16.17
2023-04-16T19:57:10.863Z,14.32
2023-04-16T19:59:39.290Z,14.57
2023-04-16T20:02:07.639Z,17.45
2023-04-16T20:04:36.379Z,17.83
2023-04-16T20:07:07.285Z,15.82
2023-04-16T20:09:35.459Z,15.57
2023-04-16T20:12:03.625Z,15.73
2023-04-16T20:14:31.732Z,15.10
2023-04-16T20:16:59.995Z,20.83
2023-04-16T20:19:28.484Z,23.05
2023-04-16T20:21:56.749Z,22.95
2023-04-16T20:24:25.051Z,25.33
2023-04-16T20:26:53.330Z,20.30
2023-04-16T20:29:21.699Z,17.38
2023-04-16T20:31:49.797Z,16.27
2023-04-16T20:34:18.128Z,21.70
2023-04-16T20:36:46.318Z,20.42
2023-04-16T20:39:14.626Z,16.70
2023-04-16T20:41:42.713Z,13.38
2023-04-16T20:44:10.956Z,15.18
2023-04-16T20:46:39.245Z,15.05
2023-04-16T20:49:07.529Z,14.63
2023-04-16T20:51:38.007Z,14.63
2023-04-16T20:54:06.741Z,14.43
2023-04-16T20:56:34.965Z,15.50
2023-04-16T20:59:03.171Z,17.85
2023-04-16T21:01:31.333Z,20.90
2023-04-16T21:04:00.011Z,17.77
2023-04-16T21:06:28.429Z,17.98
2023-04-16T21:08:56.716Z,22.27
2023-04-16T21:11:24.904Z,31.42
2023-04-16T21:13:53.285Z,17.83
2023-04-16T21:16:21.413Z,15.43
2023-04-16T21:18:49.620Z,15.35
2023-04-16T21:21:17.861Z,17.05
2023-04-16T21:23:46.162Z,15.88
2023-04-16T21:26:14.413Z,16.60
2023-04-16T21:28:42.698Z,16.90
2023-04-16T21:31:11.055Z,17.50
2023-04-16T21:33:39.280Z,16.45
2023-04-16T21:36:07.634Z,16.73
2023-04-16T21:38:35.923Z,17.83
2023-04-16T21:41:04.084Z,18.20
2023-04-16T21:43:32.479Z,18.40
2023-04-16T21:46:00.846Z,18.90
2023-04-16T21:48:29.234Z,18.38
2023-04-16T21:50:58.635Z,15.13
2023-04-16T21:53:27.590Z,17.08
2023-04-16T21:55:55.801Z,16.10
2023-04-16T21:58:23.997Z,16.15
2023-04-16T22:00:52.645Z,15.18
2023-04-16T22:03:23.693Z,14.45
2023-04-16T22:05:57.075Z,13.43
2023-04-16T22:08:25.447Z,13.18
2023-04-16T22:10:57.629Z,9.57
2023-04-16T22:13:26.236Z,7.60
2023-04-16T22:15:55.338Z,6.10
2023-04-16T22:18:24.854Z,4.38
2023-04-16T22:20:54.496Z,4.07
2023-04-16T22:23:26.562Z,3.47
2023-04-16T22:25:56.639Z,3.80
2023-04-16T22:28:25.259Z,3.30
2023-04-16T22:30:53.351Z,3.00
2023-04-16T22:33:21.697Z,2.70
2023-04-16T22:35:50.107Z,2.50
2023-04-16T22:38:18.568Z,9.45
2023-04-16T22:40:48.681Z,7.45
2023-04-16T22:43:16.844Z,3.53
2023-04-16T22:45:45.262Z,2.47
2023-04-16T22:48:14.703Z,3.95
2023-04-16T22:50:46.922Z,3.35
2023-04-16T22:53:15.164Z,3.97
2023-04-16T22:55:43.453Z,4.55
2023-04-16T22:58:11.869Z,8.13
2023-04-16T23:00:40.371Z,12.85
2023-04-16T23:03:08.899Z,7.18
2023-04-16T23:05:37.492Z,8.52
2023-04-16T23:08:06.127Z,7.85
2023-04-16T23:10:37.313Z,4.93
2023-04-16T23:13:05.586Z,5.78
2023-04-16T23:15:33.866Z,9.40
2023-04-16T23:21:06.215Z,97.18
2023-04-16T23:23:34.490Z,55.42
2023-04-16T23:26:02.840Z,29.30
2023-04-16T23:28:31.172Z,12.63
2023-04-16T23:30:59.579Z,9.90
2023-04-16T23:33:27.891Z,10.63
2023-04-16T23:35:56.108Z,10.73
2023-04-16T23:38:24.437Z,11.68
2023-04-16T23:40:52.760Z,11.52
2023-04-16T23:43:21.013Z,10.90
2023-04-16T23:45:49.372Z,9.05
2023-04-16T23:48:17.714Z,5.68
2023-04-16T23:50:45.986Z,5.38
2023-04-16T23:53:14.282Z,6.03
2023-04-16T23:55:42.473Z,6.13
2023-04-16T23:58:10.892Z,5.45
